Time;durP1;ratioP1;P1;durP2;ratioP2;P2;SDS_P1;SDS_P2;PMS_P1;PMS_P2;Temp;Humidity;BMP_temperature;BMP_pressure;BME280_temperature;BME280_humidity;BME280_pressure;Samples;Min_cycle;Max_cycle;Signal;HPM_P1;HPM_P2
2022/07/26 00:00:44;;;;;;;10.50;7.70;;;;;;;;;;5002100;28;20129;-82
2022/07/26 00:03:09;;;;;;;10.27;7.95;;;;;;;;;;5009729;28;20035;-83
2022/07/26 00:05:36;;;;;;;11.77;8.57;;;;;;;;;;5011044;28;20044;-82
2022/07/26 00:08:10;;;;;;;12.23;8.23;;;;;;;;;;5003734;28;20152;-82
2022/07/26 00:10:41;;;;;;;11.40;7.80;;;;;;;;;;5003449;28;20026;-84
2022/07/26 00:13:06;;;;;;;10.77;8.15;;;;;;;;;;5003557;28;20033;-83
2022/07/26 00:15:32;;;;;;;12.00;8.10;;;;;;;;;;5008781;28;20045;-83
2022/07/26 00:17:57;;;;;;;12.02;8.70;;;;;;;;;;4988771;28;20044;-82
2022/07/26 00:20:23;;;;;;;10.75;7.75;;;;;;;;;;5013174;28;20050;-82
2022/07/26 00:22:48;;;;;;;11.40;8.38;;;;;;;;;;5002910;28;20049;-82
2022/07/26 00:25:13;;;;;;;11.93;8.05;;;;;;;;;;5015247;28;20030;-83
2022/07/26 00:27:39;;;;;;;11.07;7.72;;;;;;;;;;5003113;28;20116;-81
2022/07/26 00:30:06;;;;;;;11.23;7.78;;;;;;;;;;5008760;28;20614;-83
2022/07/26 00:32:32;;;;;;;13.00;8.20;;;;;;;;;;5017646;28;20034;-82
2022/07/26 00:34:57;;;;;;;11.10;7.88;;;;;;;;;;5001185;28;20099;-82
2022/07/26 00:37:23;;;;;;;10.75;7.88;;;;;;;;;;5002248;28;20046;-82
2022/07/26 00:39:49;;;;;;;12.15;8.60;;;;;;;;;;5008244;28;20398;-83
2022/07/26 00:42:14;;;;;;;12.15;8.73;;;;;;;;;;5000416;28;20033;-83
2022/07/26 00:44:42;;;;;;;9.93;7.63;;;;;;;;;;4999320;28;20038;-82
2022/07/26 00:47:07;;;;;;;10.75;7.53;;;;;;;;;;5017004;28;20389;-83
2022/07/26 00:49:32;;;;;;;11.48;8.10;;;;;;;;;;5001697;28;20037;-82
2022/07/26 00:51:58;;;;;;;11.70;8.00;;;;;;;;;;5015211;28;20030;-82
2022/07/26 00:54:23;;;;;;;12.13;7.35;;;;;;;;;;5001987;28;20155;-84
2022/07/26 00:56:49;;;;;;;10.40;7.30;;;;;;;;;;5003629;28;20034;-83
2022/07/26 00:59:14;;;;;;;9.02;6.40;;;;;;;;;;4999556;28;20037;-83
2022/07/26 01:01:39;;;;;;;11.52;7.63;;;;;;;;;;5008101;28;20612;-82
2022/07/26 01:04:05;;;;;;;10.70;7.00;;;;;;;;;;5001757;28;20046;-82
2022/07/26 01:06:30;;;;;;;10.18;6.60;;;;;;;;;;5013754;28;20048;-83
2022/07/26 01:08:55;;;;;;;8.90;6.30;;;;;;;;;;5002323;28;20042;-82
2022/07/26 01:11:21;;;;;;;7.97;5.97;;;;;;;;;;4991072;28;20401;-84
2022/07/26 01:13:48;;;;;;;8.52;5.95;;;;;;;;;;4986998;28;20124;-82
2022/07/26 01:16:13;;;;;;;9.80;6.23;;;;;;;;;;4995632;28;20456;-82
2022/07/26 01:18:38;;;;;;;10.70;6.30;;;;;;;;;;4998105;28;20280;-82
2022/07/26 01:21:05;;;;;;;8.30;6.45;;;;;;;;;;4994879;28;20101;-84
2022/07/26 01:23:32;;;;;;;9.13;6.57;;;;;;;;;;4984463;28;20047;-82
2022/07/26 01:25:57;;;;;;;10.40;6.38;;;;;;;;;;5008746;28;20441;-82
2022/07/26 01:28:22;;;;;;;8.57;6.43;;;;;;;;;;5000128;28;20049;-83
2022/07/26 01:30:48;;;;;;;8.90;5.80;;;;;;;;;;4999747;28;20037;-82
2022/07/26 01:33:14;;;;;;;9.55;5.97;;;;;;;;;;4999278;28;20030;-82
2022/07/26 01:35:39;;;;;;;7.45;5.78;;;;;;;;;;4993082;28;20034;-82
2022/07/26 01:38:05;;;;;;;8.20;6.10;;;;;;;;;;5015411;28;20138;-82
2022/07/26 01:40:30;;;;;;;8.20;5.85;;;;;;;;;;5011270;28;20030;-83
2022/07/26 01:42:55;;;;;;;8.32;5.80;;;;;;;;;;5001549;28;20037;-83
2022/07/26 01:45:21;;;;;;;9.05;6.30;;;;;;;;;;5007467;28;20037;-83
2022/07/26 01:47:48;;;;;;;7.85;5.60;;;;;;;;;;5015519;28;20041;-82
2022/07/26 01:50:14;;;;;;;;;;;;;;;;;;5000401;28;20034;-82
2022/07/26 01:52:39;;;;;;;9.75;6.15;;;;;;;;;;5014191;28;19939;-82
2022/07/26 01:55:05;;;;;;;8.82;6.10;;;;;;;;;;4998826;28;20299;-83
2022/07/26 01:57:31;;;;;;;9.50;6.20;;;;;;;;;;4989589;28;20040;-84
2022/07/26 01:59:56;;;;;;;9.23;6.03;;;;;;;;;;5000028;28;20068;-82
2022/07/26 02:02:23;;;;;;;10.45;6.20;;;;;;;;;;4980701;28;20051;-82
2022/07/26 02:05:00;;;;;;;9.38;6.35;;;;;;;;;;5015272;28;20076;-82
2022/07/26 02:07:31;;;;;;;10.57;5.82;;;;;;;;;;5015595;28;20504;-83
2022/07/26 02:09:57;;;;;;;8.18;5.60;;;;;;;;;;5005978;28;20117;-83
2022/07/26 02:12:23;;;;;;;7.90;6.00;;;;;;;;;;5005809;28;20043;-83
2022/07/26 02:14:48;;;;;;;8.20;5.50;;;;;;;;;;5016466;28;20509;-82
2022/07/26 02:17:14;;;;;;;9.07;6.22;;;;;;;;;;4983481;28;20038;-82
2022/07/26 02:19:39;;;;;;;8.07;6.10;;;;;;;;;;5003588;28;20444;-82
2022/07/26 02:22:05;;;;;;;6.90;5.10;;;;;;;;;;5003231;28;20516;-82
2022/07/26 02:24:31;;;;;;;8.70;5.90;;;;;;;;;;5013215;28;20046;-83
2022/07/26 02:26:58;;;;;;;7.85;5.53;;;;;;;;;;4999699;28;20800;-82
2022/07/26 02:29:24;;;;;;;10.53;5.93;;;;;;;;;;5018748;28;20057;-82
2022/07/26 02:31:50;;;;;;;10.20;6.68;;;;;;;;;;5013080;28;20029;-82
2022/07/26 02:34:16;;;;;;;11.13;6.85;;;;;;;;;;4998946;28;20039;-82
2022/07/26 02:36:41;;;;;;;13.32;7.22;;;;;;;;;;5000039;28;20045;-83
2022/07/26 02:39:07;;;;;;;8.38;5.68;;;;;;;;;;4997208;28;20029;-82
2022/07/26 02:41:32;;;;;;;9.98;6.22;;;;;;;;;;5000769;28;20038;-83
2022/07/26 02:43:58;;;;;;;11.57;6.75;;;;;;;;;;5000585;28;20048;-82
2022/07/26 02:46:23;;;;;;;8.07;5.25;;;;;;;;;;4998646;28;20084;-81
2022/07/26 02:48:49;;;;;;;9.48;5.55;;;;;;;;;;5015369;28;20133;-81
2022/07/26 02:51:14;;;;;;;8.27;5.55;;;;;;;;;;5012763;28;20026;-82
2022/07/26 02:53:40;;;;;;;9.18;5.53;;;;;;;;;;5010885;28;20112;-81
2022/07/26 02:56:05;;;;;;;8.80;5.82;;;;;;;;;;4998271;28;20120;-83
2022/07/26 02:58:31;;;;;;;9.50;5.90;;;;;;;;;;4999829;28;20045;-82
2022/07/26 03:00:56;;;;;;;8.80;6.40;;;;;;;;;;4997769;28;20044;-82
2022/07/26 03:03:21;;;;;;;8.30;5.85;;;;;;;;;;4997031;28;20042;-81
2022/07/26 03:05:47;;;;;;;7.85;5.28;;;;;;;;;;4998270;28;20073;-83
2022/07/26 03:08:12;;;;;;;9.52;5.72;;;;;;;;;;4999439;28;20033;-81
2022/07/26 03:10:38;;;;;;;8.52;5.97;;;;;;;;;;5013374;28;20036;-82
2022/07/26 03:13:03;;;;;;;8.57;6.10;;;;;;;;;;4998805;28;20507;-82
2022/07/26 03:15:28;;;;;;;9.32;5.72;;;;;;;;;;5013769;28;20456;-82
2022/07/26 03:17:54;;;;;;;8.55;5.45;;;;;;;;;;4985544;28;20038;-82
2022/07/26 03:20:19;;;;;;;9.05;6.25;;;;;;;;;;5013242;28;20039;-83
2022/07/26 03:22:45;;;;;;;8.18;5.63;;;;;;;;;;4998879;28;20038;-81
2022/07/26 03:25:10;;;;;;;9.30;6.18;;;;;;;;;;5000275;28;20466;-81
2022/07/26 03:27:35;;;;;;;9.02;6.22;;;;;;;;;;5012142;28;20096;-81
2022/07/26 03:30:01;;;;;;;8.45;6.20;;;;;;;;;;5004738;28;20044;-83
2022/07/26 03:32:26;;;;;;;9.07;5.43;;;;;;;;;;4999099;28;20068;-82
2022/07/26 03:34:51;;;;;;;8.85;5.60;;;;;;;;;;4998919;28;20114;-83
2022/07/26 03:37:17;;;;;;;8.38;5.57;;;;;;;;;;4999848;28;20473;-81
2022/07/26 03:39:43;;;;;;;8.05;5.68;;;;;;;;;;5000059;28;20041;-81
2022/07/26 03:42:08;;;;;;;7.93;5.38;;;;;;;;;;4997333;28;20029;-82
2022/07/26 03:44:33;;;;;;;10.10;5.68;;;;;;;;;;4999633;28;20136;-81
2022/07/26 03:46:59;;;;;;;8.57;5.63;;;;;;;;;;5003308;28;20034;-81
2022/07/26 03:49:24;;;;;;;9.20;5.45;;;;;;;;;;4979639;28;20042;-81
2022/07/26 03:51:50;;;;;;;8.48;5.60;;;;;;;;;;4996721;28;20116;-81
2022/07/26 03:54:15;;;;;;;8.25;5.63;;;;;;;;;;4999341;28;20064;-81
2022/07/26 03:56:41;;;;;;;9.45;5.68;;;;;;;;;;4988138;28;20474;-81
2022/07/26 03:59:08;;;;;;;8.25;5.38;;;;;;;;;;4988293;28;20401;-82
2022/07/26 04:01:38;;;;;;;8.40;5.10;;;;;;;;;;5008715;28;20034;-81
2022/07/26 04:04:04;;;;;;;6.82;4.50;;;;;;;;;;5013744;28;20034;-81
2022/07/26 04:06:29;;;;;;;7.90;4.28;;;;;;;;;;5017852;28;20042;-81
2022/07/26 04:08:54;;;;;;;6.53;4.55;;;;;;;;;;5001124;28;20036;-82
2022/07/26 04:11:20;;;;;;;7.25;4.38;;;;;;;;;;5002958;28;20040;-82
2022/07/26 04:13:45;;;;;;;7.53;4.97;;;;;;;;;;5000461;28;20041;-81
2022/07/26 04:16:11;;;;;;;7.93;4.50;;;;;;;;;;4995686;28;20030;-81
2022/07/26 04:18:36;;;;;;;8.45;4.78;;;;;;;;;;5016124;28;20041;-81
2022/07/26 04:21:02;;;;;;;7.82;4.53;;;;;;;;;;4993439;28;20034;-82
2022/07/26 04:23:27;;;;;;;7.68;4.13;;;;;;;;;;5003110;28;20136;-81
2022/07/26 04:25:53;;;;;;;6.45;4.10;;;;;;;;;;5016017;28;20030;-82
2022/07/26 04:28:18;;;;;;;6.50;3.90;;;;;;;;;;5005476;28;20152;-81
2022/07/26 04:30:44;;;;;;;7.25;4.05;;;;;;;;;;4997108;28;20081;-81
2022/07/26 04:33:09;;;;;;;6.97;4.22;;;;;;;;;;4986317;28;20033;-81
2022/07/26 04:35:35;;;;;;;7.95;4.15;;;;;;;;;;5001792;28;20036;-81
2022/07/26 04:38:01;;;;;;;7.43;4.13;;;;;;;;;;5002249;28;20033;-83
2022/07/26 04:40:27;;;;;;;6.25;4.30;;;;;;;;;;4999589;28;20041;-82
2022/07/26 04:42:53;;;;;;;6.53;4.05;;;;;;;;;;5002307;28;20448;-81
2022/07/26 04:45:19;;;;;;;6.57;3.70;;;;;;;;;;5014177;28;19929;-82
2022/07/26 04:47:48;;;;;;;7.78;4.07;;;;;;;;;;5008123;28;20061;-81
2022/07/26 04:50:14;;;;;;;7.22;4.03;;;;;;;;;;5019410;28;20034;-81
2022/07/26 04:52:39;;;;;;;6.95;3.88;;;;;;;;;;4997161;28;20046;-80
2022/07/26 04:55:06;;;;;;;6.72;3.50;;;;;;;;;;4999403;28;20482;-83
2022/07/26 04:57:31;;;;;;;5.60;3.75;;;;;;;;;;5017002;28;20034;-83
2022/07/26 04:59:57;;;;;;;6.00;3.55;;;;;;;;;;5008983;28;20052;-82
2022/07/26 05:02:22;;;;;;;7.40;3.53;;;;;;;;;;5001448;28;20072;-81
2022/07/26 05:04:47;;;;;;;7.78;4.03;;;;;;;;;;5007453;28;20128;-82
2022/07/26 05:07:13;;;;;;;8.20;4.65;;;;;;;;;;4993562;28;20112;-82
2022/07/26 05:09:38;;;;;;;6.82;4.10;;;;;;;;;;5002000;28;20053;-82
2022/07/26 05:12:03;;;;;;;6.40;4.25;;;;;;;;;;4999245;28;20026;-82
2022/07/26 05:14:29;;;;;;;5.85;3.55;;;;;;;;;;5007706;28;20044;-81
2022/07/26 05:16:54;;;;;;;7.38;3.90;;;;;;;;;;5004589;28;20038;-82
2022/07/26 05:19:19;;;;;;;6.05;3.67;;;;;;;;;;4997881;28;20033;-82
2022/07/26 05:21:45;;;;;;;7.50;4.22;;;;;;;;;;5013378;28;20041;-81
2022/07/26 05:24:10;;;;;;;5.22;3.33;;;;;;;;;;5001620;28;20052;-82
2022/07/26 05:26:35;;;;;;;6.75;3.95;;;;;;;;;;4992841;28;20787;-82
2022/07/26 05:29:01;;;;;;;5.28;3.63;;;;;;;;;;4999839;28;20041;-83
2022/07/26 05:31:26;;;;;;;7.00;3.80;;;;;;;;;;5013925;28;20136;-82
2022/07/26 05:33:52;;;;;;;9.02;4.10;;;;;;;;;;5000289;28;20508;-81
2022/07/26 05:36:18;;;;;;;8.35;3.85;;;;;;;;;;5013381;28;20553;-81
2022/07/26 05:38:43;;;;;;;5.80;3.05;;;;;;;;;;4999520;28;20060;-81
2022/07/26 05:41:09;;;;;;;5.82;3.28;;;;;;;;;;5014151;28;20072;-82
2022/07/26 05:43:34;;;;;;;5.10;3.40;;;;;;;;;;5001350;28;20657;-80
2022/07/26 05:45:59;;;;;;;5.07;3.15;;;;;;;;;;5001604;28;20496;-82
2022/07/26 05:48:25;;;;;;;8.55;3.33;;;;;;;;;;4980695;28;20050;-81
2022/07/26 05:50:51;;;;;;;5.78;2.92;;;;;;;;;;5001379;28;20033;-82
2022/07/26 05:53:16;;;;;;;7.30;2.78;;;;;;;;;;4987464;28;20056;-83
2022/07/26 05:55:42;;;;;;;5.03;2.60;;;;;;;;;;4999971;28;20030;-81
2022/07/26 05:58:07;;;;;;;6.88;2.97;;;;;;;;;;5011944;28;20214;-82
2022/07/26 06:00:33;;;;;;;5.43;2.33;;;;;;;;;;5000205;28;20037;-82
2022/07/26 06:02:58;;;;;;;4.03;2.33;;;;;;;;;;4999908;28;20504;-81
2022/07/26 06:05:23;;;;;;;4.43;2.08;;;;;;;;;;5000165;28;20039;-82
2022/07/26 06:07:49;;;;;;;3.60;1.85;;;;;;;;;;4997697;28;20475;-82
2022/07/26 06:10:14;;;;;;;4.00;1.80;;;;;;;;;;5015978;28;20040;-81
2022/07/26 06:12:40;;;;;;;6.63;2.38;;;;;;;;;;5005747;28;20041;-82
2022/07/26 06:15:06;;;;;;;8.05;2.70;;;;;;;;;;5000851;28;20034;-82
2022/07/26 06:17:31;;;;;;;6.53;2.17;;;;;;;;;;4998949;28;20033;-83
2022/07/26 06:19:57;;;;;;;5.25;2.15;;;;;;;;;;4999345;28;20042;-82
2022/07/26 06:22:22;;;;;;;4.50;1.88;;;;;;;;;;5005135;28;20038;-83
2022/07/26 06:24:48;;;;;;;4.68;1.70;;;;;;;;;;5013742;28;20124;-82
2022/07/26 06:27:13;;;;;;;4.70;1.70;;;;;;;;;;5000766;28;20025;-83
2022/07/26 06:29:39;;;;;;;4.13;1.80;;;;;;;;;;4998830;28;20036;-83
2022/07/26 06:32:05;;;;;;;9.38;2.30;;;;;;;;;;5011524;28;20038;-83
2022/07/26 06:34:30;;;;;;;4.43;1.70;;;;;;;;;;4983046;28;20088;-82
2022/07/26 06:36:55;;;;;;;3.30;1.45;;;;;;;;;;5003927;28;20038;-83
2022/07/26 06:39:21;;;;;;;5.70;1.90;;;;;;;;;;5004530;28;20034;-84
2022/07/26 06:41:46;;;;;;;4.55;1.60;;;;;;;;;;5010091;28;20040;-83
2022/07/26 06:44:12;;;;;;;3.72;1.50;;;;;;;;;;5013581;28;20064;-81
2022/07/26 06:46:37;;;;;;;4.30;1.75;;;;;;;;;;4999987;28;20481;-82
2022/07/26 06:49:02;;;;;;;4.30;1.30;;;;;;;;;;5014649;28;20029;-82
2022/07/26 06:51:29;;;;;;;5.95;1.55;;;;;;;;;;4997838;28;20053;-83
2022/07/26 06:53:54;;;;;;;6.15;1.70;;;;;;;;;;5016807;28;20098;-82
2022/07/26 06:56:20;;;;;;;4.53;1.30;;;;;;;;;;4999602;28;20045;-85
2022/07/26 06:58:46;;;;;;;5.05;1.27;;;;;;;;;;5002426;28;20081;-82
2022/07/26 07:01:11;;;;;;;5.22;1.50;;;;;;;;;;5016279;28;20084;-82
2022/07/26 07:03:37;;;;;;;2.67;1.20;;;;;;;;;;5002088;28;20493;-82
2022/07/26 07:06:02;;;;;;;2.92;1.08;;;;;;;;;;5001383;28;20037;-82
2022/07/26 07:08:28;;;;;;;5.47;1.58;;;;;;;;;;4999462;28;20041;-83
2022/07/26 07:10:54;;;;;;;4.40;1.33;;;;;;;;;;5011068;28;20040;-85
2022/07/26 07:13:21;;;;;;;3.92;1.25;;;;;;;;;;5014328;28;20420;-83
2022/07/26 07:15:47;;;;;;;4.85;1.15;;;;;;;;;;5005302;28;20035;-83
2022/07/26 07:18:12;;;;;;;5.05;1.23;;;;;;;;;;4996455;28;20032;-82
2022/07/26 07:20:39;;;;;;;5.20;1.42;;;;;;;;;;4995327;28;20038;-85
2022/07/26 07:23:04;;;;;;;5.38;1.00;;;;;;;;;;4999038;28;20041;-82
2022/07/26 07:25:30;;;;;;;4.40;1.25;;;;;;;;;;5012368;28;20034;-84
2022/07/26 07:27:55;;;;;;;4.28;1.55;;;;;;;;;;5000145;28;20037;-82
2022/07/26 07:30:21;;;;;;;4.88;1.20;;;;;;;;;;5014675;28;20041;-82
2022/07/26 07:32:46;;;;;;;5.05;1.00;;;;;;;;;;4999938;28;20061;-83
2022/07/26 07:35:11;;;;;;;4.13;0.90;;;;;;;;;;5000559;28;20026;-84
2022/07/26 07:37:37;;;;;;;3.28;1.20;;;;;;;;;;5015158;28;21019;-83
2022/07/26 07:40:07;;;;;;;4.82;1.10;;;;;;;;;;5001280;28;20030;-83
2022/07/26 07:42:32;;;;;;;4.68;1.17;;;;;;;;;;5012631;28;20524;-83
2022/07/26 07:44:58;;;;;;;5.38;1.13;;;;;;;;;;5007729;28;20045;-84
2022/07/26 07:47:23;;;;;;;4.00;1.30;;;;;;;;;;4988953;28;20037;-84
2022/07/26 07:49:48;;;;;;;4.72;1.08;;;;;;;;;;5013170;28;20048;-84
2022/07/26 07:52:14;;;;;;;5.80;1.30;;;;;;;;;;5011906;28;20575;-83
2022/07/26 07:54:39;;;;;;;4.03;1.20;;;;;;;;;;5003144;28;20031;-84
2022/07/26 07:57:04;;;;;;;4.82;1.00;;;;;;;;;;4998632;28;20083;-82
2022/07/26 07:59:33;;;;;;;2.63;1.00;;;;;;;;;;5008207;28;20501;-82
2022/07/26 08:01:58;;;;;;;3.40;0.93;;;;;;;;;;4995280;28;20144;-85
2022/07/26 08:04:24;;;;;;;3.55;0.80;;;;;;;;;;5001098;28;20485;-83
2022/07/26 08:06:49;;;;;;;5.13;0.95;;;;;;;;;;4981296;28;20502;-82
2022/07/26 08:09:14;;;;;;;4.60;1.00;;;;;;;;;;4982130;28;20100;-86
2022/07/26 08:11:40;;;;;;;3.72;1.00;;;;;;;;;;4978887;28;20046;-82
2022/07/26 08:14:05;;;;;;;4.47;1.05;;;;;;;;;;4992364;28;20031;-84
2022/07/26 08:16:30;;;;;;;3.83;1.10;;;;;;;;;;4993475;28;20095;-82
2022/07/26 08:18:56;;;;;;;4.22;1.00;;;;;;;;;;4997323;28;20095;-82
2022/07/26 08:21:21;;;;;;;2.30;0.60;;;;;;;;;;4994942;28;20042;-83
2022/07/26 08:23:47;;;;;;;4.22;1.23;;;;;;;;;;4997433;28;20046;-82
2022/07/26 08:26:12;;;;;;;3.20;0.85;;;;;;;;;;5003538;28;20034;-82
2022/07/26 08:28:38;;;;;;;2.67;0.70;;;;;;;;;;4998899;28;20052;-82
2022/07/26 08:31:04;;;;;;;3.28;0.98;;;;;;;;;;5007343;28;20481;-83
2022/07/26 08:33:29;;;;;;;5.13;0.90;;;;;;;;;;5004131;28;20042;-82
2022/07/26 08:35:55;;;;;;;2.38;0.70;;;;;;;;;;5008573;28;20457;-81
2022/07/26 08:38:20;;;;;;;3.15;0.88;;;;;;;;;;4998962;28;20034;-83
2022/07/26 08:40:45;;;;;;;3.20;0.90;;;;;;;;;;4984895;28;20030;-81
2022/07/26 08:43:11;;;;;;;2.65;0.95;;;;;;;;;;5014475;28;20033;-81
2022/07/26 08:45:36;;;;;;;3.33;0.80;;;;;;;;;;5001668;28;20122;-81
2022/07/26 08:48:02;;;;;;;5.30;1.10;;;;;;;;;;5013790;28;20049;-81
2022/07/26 08:50:28;;;;;;;3.22;0.70;;;;;;;;;;5002650;28;20033;-81
2022/07/26 08:52:59;;;;;;;6.22;1.25;;;;;;;;;;5002034;28;20493;-83
2022/07/26 08:55:25;;;;;;;3.08;0.90;;;;;;;;;;5013670;28;20508;-82
2022/07/26 08:57:50;;;;;;;3.50;0.77;;;;;;;;;;4995224;28;20038;-83
2022/07/26 09:00:28;;;;;;;3.53;1.05;;;;;;;;;;4998723;28;20563;-83
2022/07/26 09:02:54;;;;;;;3.00;0.70;;;;;;;;;;4999935;28;20536;-82
2022/07/26 09:05:25;;;;;;;2.35;0.73;;;;;;;;;;4997606;28;20034;-82
2022/07/26 09:07:51;;;;;;;2.05;0.52;;;;;;;;;;4982476;28;20042;-83
2022/07/26 09:10:16;;;;;;;1.80;0.55;;;;;;;;;;5002999;28;20084;-83
2022/07/26 09:12:42;;;;;;;4.95;0.90;;;;;;;;;;5014213;28;20037;-83
2022/07/26 09:15:18;;;;;;;2.15;0.57;;;;;;;;;;4999885;28;20044;-83
2022/07/26 09:17:46;;;;;;;1.38;0.50;;;;;;;;;;5000371;28;20498;-83
2022/07/26 09:20:15;;;;;;;3.75;1.00;;;;;;;;;;5016614;28;20049;-82
2022/07/26 09:22:59;;;;;;;2.13;0.70;;;;;;;;;;4999231;28;20038;-82
2022/07/26 09:25:26;;;;;;;2.88;0.80;;;;;;;;;;5013676;28;20379;-83
2022/07/26 09:27:52;;;;;;;3.17;0.95;;;;;;;;;;5016440;28;20037;-82
2022/07/26 09:30:17;;;;;;;3.13;0.80;;;;;;;;;;4994603;28;20504;-82
2022/07/26 09:33:12;;;;;;;1.95;0.60;;;;;;;;;;4999465;28;20051;-81
2022/07/26 09:35:37;;;;;;;3.63;0.70;;;;;;;;;;5001082;28;20034;-82
2022/07/26 09:38:13;;;;;;;2.30;0.60;;;;;;;;;;5003203;28;20516;-83
2022/07/26 09:40:38;;;;;;;2.08;0.63;;;;;;;;;;4999969;28;20493;-84
2022/07/26 09:43:05;;;;;;;3.97;0.82;;;;;;;;;;5006355;28;20030;-83
2022/07/26 09:45:33;;;;;;;3.65;0.80;;;;;;;;;;4999104;28;25177;-82
2022/07/26 09:47:59;;;;;;;1.58;0.45;;;;;;;;;;5007365;28;20099;-82
2022/07/26 09:50:29;;;;;;;1.80;0.50;;;;;;;;;;4998930;28;20417;-83
2022/07/26 09:53:07;;;;;;;2.35;0.60;;;;;;;;;;4997177;28;20033;-82
2022/07/26 09:55:34;;;;;;;1.65;0.38;;;;;;;;;;4998758;28;20030;-83
2022/07/26 09:58:02;;;;;;;1.90;0.50;;;;;;;;;;4999034;28;20041;-85
2022/07/26 10:00:31;;;;;;;1.85;0.60;;;;;;;;;;4998806;28;20083;-83
2022/07/26 10:02:57;;;;;;;1.63;0.45;;;;;;;;;;5001190;28;20061;-84
2022/07/26 10:05:23;;;;;;;1.63;0.52;;;;;;;;;;4998833;28;20064;-83
2022/07/26 10:07:51;;;;;;;2.33;0.52;;;;;;;;;;4997377;28;20049;-82
2022/07/26 10:10:23;;;;;;;2.70;0.57;;;;;;;;;;5000358;28;20041;-84
2022/07/26 10:12:50;;;;;;;2.28;0.60;;;;;;;;;;5006093;28;20281;-84
2022/07/26 10:15:38;;;;;;;1.50;0.50;;;;;;;;;;4999991;28;20042;-86
2022/07/26 10:18:04;;;;;;;3.15;0.50;;;;;;;;;;5014555;28;20045;-84
2022/07/26 10:20:44;;;;;;;1.58;0.50;;;;;;;;;;5002711;28;20038;-83
2022/07/26 10:23:39;;;;;;;3.25;0.85;;;;;;;;;;5014292;28;20429;-84
2022/07/26 10:26:07;;;;;;;1.52;0.55;;;;;;;;;;5017428;28;20031;-83
2022/07/26 10:28:35;;;;;;;4.25;0.80;;;;;;;;;;5016740;28;20037;-82
2022/07/26 10:31:19;;;;;;;2.25;0.60;;;;;;;;;;4999432;28;20449;-81
2022/07/26 10:33:46;;;;;;;2.10;0.80;;;;;;;;;;5016458;28;20073;-82
2022/07/26 10:36:28;;;;;;;2.70;0.80;;;;;;;;;;4993925;28;20041;-84
2022/07/26 10:39:14;;;;;;;4.10;0.95;;;;;;;;;;5014896;28;20037;-83
2022/07/26 10:41:44;;;;;;;4.28;1.00;;;;;;;;;;4999747;28;20527;-86
2022/07/26 10:44:14;;;;;;;2.70;0.80;;;;;;;;;;5004468;28;20038;-84
2022/07/26 10:46:55;;;;;;;2.20;0.63;;;;;;;;;;5017975;28;20065;-83
2022/07/26 10:49:27;;;;;;;2.75;0.70;;;;;;;;;;5016810;28;20034;-83
2022/07/26 10:52:03;;;;;;;1.85;0.57;;;;;;;;;;5005103;28;20080;-82
2022/07/26 10:54:29;;;;;;;1.92;0.60;;;;;;;;;;5014911;28;20042;-83
2022/07/26 10:56:54;;;;;;;3.97;0.82;;;;;;;;;;4998387;28;20049;-83
2022/07/26 10:59:31;;;;;;;2.17;0.70;;;;;;;;;;5014177;28;20038;-82
2022/07/26 11:01:57;;;;;;;2.53;0.60;;;;;;;;;;5002751;28;20045;-84
2022/07/26 11:04:23;;;;;;;2.70;0.95;;;;;;;;;;4998211;28;20558;-82
2022/07/26 11:06:49;;;;;;;1.63;0.60;;;;;;;;;;5008780;28;20045;-82
2022/07/26 11:09:16;;;;;;;4.35;0.73;;;;;;;;;;4994838;28;20774;-84
2022/07/26 11:11:41;;;;;;;2.85;0.93;;;;;;;;;;5005179;28;20040;-82
2022/07/26 11:14:08;;;;;;;3.60;0.70;;;;;;;;;;5000395;28;20580;-84
2022/07/26 11:16:41;;;;;;;2.50;0.77;;;;;;;;;;4983500;28;20459;-83
2022/07/26 11:19:17;;;;;;;3.75;0.90;;;;;;;;;;5010889;28;20025;-82
2022/07/26 11:21:44;;;;;;;4.55;1.10;;;;;;;;;;5012791;28;20041;-83
2022/07/26 11:24:09;;;;;;;1.63;0.50;;;;;;;;;;5005981;28;20042;-85
2022/07/26 11:26:42;;;;;;;2.65;0.70;;;;;;;;;;5012886;28;20123;-83
2022/07/26 11:29:07;;;;;;;2.22;0.70;;;;;;;;;;4999019;28;20037;-82
2022/07/26 11:31:34;;;;;;;3.72;0.80;;;;;;;;;;4998387;28;20831;-84
2022/07/26 11:34:00;;;;;;;1.98;0.63;;;;;;;;;;5001797;28;20069;-83
2022/07/26 11:36:39;;;;;;;2.13;0.45;;;;;;;;;;4998048;28;20089;-82
2022/07/26 11:39:11;;;;;;;3.20;0.70;;;;;;;;;;5014862;28;20057;-84
2022/07/26 11:41:38;;;;;;;2.35;0.63;;;;;;;;;;5011921;28;20092;-83
2022/07/26 11:44:04;;;;;;;3.53;0.60;;;;;;;;;;5005487;28;20092;-82
2022/07/26 11:46:39;;;;;;;2.35;0.70;;;;;;;;;;4997525;28;20531;-82
2022/07/26 11:49:12;;;;;;;2.53;0.85;;;;;;;;;;5005999;28;20115;-83
2022/07/26 11:51:38;;;;;;;3.15;1.00;;;;;;;;;;4992300;28;20035;-83
2022/07/26 11:54:03;;;;;;;3.78;0.73;;;;;;;;;;4998750;28;20065;-84
2022/07/26 11:56:31;;;;;;;4.18;1.10;;;;;;;;;;4983331;28;20044;-85
2022/07/26 11:58:57;;;;;;;2.88;1.00;;;;;;;;;;4999101;28;20072;-85
2022/07/26 12:01:24;;;;;;;4.78;1.00;;;;;;;;;;5011187;28;20044;-85
2022/07/26 12:03:51;;;;;;;2.38;0.80;;;;;;;;;;5011731;28;20085;-84
2022/07/26 12:06:21;;;;;;;3.25;1.00;;;;;;;;;;4996613;28;20448;-84
2022/07/26 12:08:57;;;;;;;5.13;1.05;;;;;;;;;;4998897;28;20072;-85
2022/07/26 12:11:25;;;;;;;3.08;1.17;;;;;;;;;;5025032;28;20436;-84
2022/07/26 12:13:57;;;;;;;;;;;;;;;;;;5016428;28;20080;-84
2022/07/26 12:16:40;;;;;;;3.42;1.00;;;;;;;;;;5001148;28;19928;-83
2022/07/26 12:19:27;;;;;;;3.10;1.10;;;;;;;;;;4999093;28;20096;-83
2022/07/26 12:21:58;;;;;;;3.00;1.15;;;;;;;;;;5008830;28;20499;-82
2022/07/26 12:24:56;;;;;;;3.50;1.23;;;;;;;;;;5009792;28;20073;-82
2022/07/26 12:27:29;;;;;;;3.30;1.30;;;;;;;;;;5011974;28;20120;-85
2022/07/26 12:30:15;;;;;;;3.95;1.20;;;;;;;;;;5017791;28;20042;-83
2022/07/26 12:32:43;;;;;;;2.92;1.25;;;;;;;;;;5001263;28;20033;-82
2022/07/26 12:35:15;;;;;;;3.83;1.23;;;;;;;;;;4997894;28;20145;-81
2022/07/26 12:37:46;;;;;;;4.28;1.30;;;;;;;;;;5024591;28;20075;-82
2022/07/26 12:40:16;;;;;;;2.25;1.05;;;;;;;;;;5012717;28;20532;-83
2022/07/26 12:42:49;;;;;;;4.65;1.20;;;;;;;;;;5016527;28;20130;-81
2022/07/26 12:45:16;;;;;;;2.60;1.23;;;;;;;;;;5024011;28;20044;-81
2022/07/26 12:47:44;;;;;;;2.00;0.93;;;;;;;;;;5013511;28;20041;-81
2022/07/26 12:50:10;;;;;;;1.95;1.20;;;;;;;;;;5016972;28;20038;-82
2022/07/26 12:52:36;;;;;;;2.88;1.02;;;;;;;;;;5000881;28;20041;-82
2022/07/26 12:55:03;;;;;;;1.77;0.90;;;;;;;;;;5014960;28;20099;-84
2022/07/26 12:57:29;;;;;;;2.53;1.05;;;;;;;;;;5005608;28;20044;-83
2022/07/26 12:59:56;;;;;;;3.17;1.10;;;;;;;;;;5013560;28;20501;-84
2022/07/26 13:02:22;;;;;;;3.85;0.93;;;;;;;;;;4998483;28;20060;-83
2022/07/26 13:04:48;;;;;;;3.22;0.80;;;;;;;;;;5000640;28;20048;-82
2022/07/26 13:07:14;;;;;;;2.60;0.90;;;;;;;;;;5002687;28;20029;-82
2022/07/26 13:09:40;;;;;;;2.75;0.90;;;;;;;;;;5001286;28;20080;-83
2022/07/26 13:12:07;;;;;;;2.58;0.98;;;;;;;;;;4981287;28;20506;-83
2022/07/26 13:14:34;;;;;;;0.98;0.60;;;;;;;;;;5013698;28;20092;-82
2022/07/26 13:17:00;;;;;;;1.50;0.60;;;;;;;;;;4984775;28;20110;-83
2022/07/26 13:19:25;;;;;;;2.22;1.08;;;;;;;;;;5018356;28;20122;-84
2022/07/26 13:21:51;;;;;;;1.77;0.73;;;;;;;;;;5014005;28;20037;-84
2022/07/26 13:24:16;;;;;;;1.67;0.73;;;;;;;;;;4987898;28;20041;-84
2022/07/26 13:26:42;;;;;;;1.38;0.68;;;;;;;;;;4991803;28;20347;-83
2022/07/26 13:29:07;;;;;;;0.90;0.50;;;;;;;;;;4989395;28;20037;-84
2022/07/26 13:31:33;;;;;;;0.80;0.40;;;;;;;;;;5002889;28;20481;-82
2022/07/26 13:33:59;;;;;;;1.85;0.60;;;;;;;;;;5000817;28;20069;-82
2022/07/26 13:36:24;;;;;;;1.23;0.50;;;;;;;;;;5014135;28;20038;-83
2022/07/26 13:38:52;;;;;;;1.60;0.60;;;;;;;;;;5002056;28;20045;-83
2022/07/26 13:41:18;;;;;;;3.05;0.60;;;;;;;;;;5000656;28;20081;-83
2022/07/26 13:43:43;;;;;;;2.58;0.95;;;;;;;;;;5014944;28;20485;-84
2022/07/26 13:46:09;;;;;;;2.45;0.60;;;;;;;;;;4998229;28;20482;-84
2022/07/26 13:48:34;;;;;;;1.98;0.60;;;;;;;;;;4997682;28;20456;-82
2022/07/26 13:50:59;;;;;;;1.98;0.70;;;;;;;;;;4998691;28;20033;-83
2022/07/26 13:53:25;;;;;;;2.25;0.60;;;;;;;;;;4995859;28;20052;-83
2022/07/26 13:55:50;;;;;;;1.48;0.47;;;;;;;;;;5002650;28;20057;-83
2022/07/26 13:58:15;;;;;;;1.75;0.50;;;;;;;;;;5006666;28;20076;-83
2022/07/26 14:00:41;;;;;;;1.58;0.52;;;;;;;;;;4984362;28;20039;-82
2022/07/26 14:03:07;;;;;;;1.17;0.50;;;;;;;;;;5013977;28;20116;-83
2022/07/26 14:05:32;;;;;;;1.85;0.60;;;;;;;;;;5013789;28;20094;-83
2022/07/26 14:07:58;;;;;;;1.50;0.40;;;;;;;;;;4994769;28;20117;-83
2022/07/26 14:10:24;;;;;;;1.35;0.50;;;;;;;;;;4995921;28;20443;-83
2022/07/26 14:12:50;;;;;;;2.17;0.60;;;;;;;;;;4997142;28;20041;-82
2022/07/26 14:15:16;;;;;;;2.28;0.52;;;;;;;;;;5001448;28;20053;-83
2022/07/26 14:17:41;;;;;;;1.45;0.60;;;;;;;;;;5006814;28;20033;-83
2022/07/26 14:20:09;;;;;;;1.17;0.57;;;;;;;;;;4998875;28;20041;-83
2022/07/26 14:22:34;;;;;;;1.60;0.60;;;;;;;;;;5000300;28;20069;-82
2022/07/26 14:24:59;;;;;;;2.58;0.50;;;;;;;;;;5015155;28;20061;-83
2022/07/26 14:27:25;;;;;;;1.75;0.70;;;;;;;;;;5012720;28;20045;-83
2022/07/26 14:29:50;;;;;;;1.65;0.55;;;;;;;;;;5002079;28;20039;-83
2022/07/26 14:32:16;;;;;;;1.58;0.50;;;;;;;;;;4999147;28;20033;-83
2022/07/26 14:34:41;;;;;;;1.77;0.70;;;;;;;;;;4999065;28;20046;-83
2022/07/26 14:37:06;;;;;;;1.50;0.60;;;;;;;;;;4996422;28;20416;-83
2022/07/26 14:39:32;;;;;;;3.20;0.90;;;;;;;;;;5000269;28;20150;-82
2022/07/26 14:41:59;;;;;;;1.27;0.50;;;;;;;;;;5011186;28;20040;-83